Belmonte Airport


Codes: SNBL/BVM
Name: Belmonte Airport
City: Belmonte
Country: Brazil
Elevation: 33 ft.

Photos at Belmonte Airport


   Photos courtesy of SpottingLog. You can add your own sightings and photos by signing up for a free trial today.



No photos found.

Weather at Belmonte Airport


Time (UTC)DescriptionTempratureWindCloud coverageVisibilityPressureHumidity
17-Jun-2024 06:00Light Rain23°C4 mph, SE22%10000m1017hPa82%
17-Jun-2024 09:00Light Rain23°C9 mph, E42%8587m1017hPa81%
17-Jun-2024 12:00Light Rain25°C9 mph, E51%10000m1018hPa78%
17-Jun-2024 15:00Light Rain27°C9 mph, E8%10000m1018hPa58%
17-Jun-2024 18:00Clear Sky27°C7 mph, E1%10000m1016hPa60%
17-Jun-2024 21:00Clear Sky24°C7 mph, E0%10000m1016hPa70%
18-Jun-2024 00:00Clear Sky24°C4 mph, E0%10000m1018hPa70%
18-Jun-2024 03:00Clear Sky23°C2 mph, NE0%10000m1017hPa74%
18-Jun-2024 06:00Clear Sky23°C4 mph, NE9%10000m1016hPa74%
18-Jun-2024 09:00Scattered Clouds23°C4 mph, NE37%10000m1017hPa77%
18-Jun-2024 12:00Light Rain25°C0 mph, SE59%10000m1019hPa67%
18-Jun-2024 15:00Broken Clouds25°C7 mph, SE81%10000m1018hPa67%
18-Jun-2024 18:00Broken Clouds26°C4 mph, SE60%10000m1016hPa62%
18-Jun-2024 21:00Clear Sky24°C7 mph, E2%10000m1016hPa74%
19-Jun-2024 00:00Clear Sky24°C7 mph, E4%10000m1018hPa77%
19-Jun-2024 03:00Clear Sky24°C7 mph, SE7%10000m1018hPa81%
19-Jun-2024 06:00Light Rain24°C7 mph, E29%10000m1017hPa80%
19-Jun-2024 09:00Light Rain24°C7 mph, SE77%10000m1017hPa78%
19-Jun-2024 12:00Light Rain26°C11 mph, SE61%10000m1020hPa73%
19-Jun-2024 15:00Moderate Rain25°C9 mph, E70%8067m1019hPa83%
19-Jun-2024 18:00Moderate Rain25°C11 mph, E87%10000m1017hPa80%
19-Jun-2024 21:00Light Rain24°C9 mph, E66%10000m1017hPa77%
20-Jun-2024 00:00Scattered Clouds24°C9 mph, E38%10000m1018hPa80%
20-Jun-2024 03:00Few Clouds24°C9 mph, E12%10000m1018hPa76%
20-Jun-2024 06:00Few Clouds24°C7 mph, E12%10000m1017hPa77%
20-Jun-2024 09:00Scattered Clouds23°C7 mph, E25%10000m1018hPa78%
20-Jun-2024 12:00Few Clouds26°C7 mph, E20%10000m1020hPa64%
20-Jun-2024 15:00Clear Sky27°C7 mph, SE0%10000m1018hPa58%
20-Jun-2024 18:00Clear Sky27°C7 mph, SE0%10000m1016hPa58%
20-Jun-2024 21:00Clear Sky24°C9 mph, SE0%10000m1017hPa73%
21-Jun-2024 00:00Clear Sky24°C7 mph, SE0%10000m1018hPa75%
21-Jun-2024 03:00Scattered Clouds24°C7 mph, SE50%10000m1018hPa77%
21-Jun-2024 06:00Light Rain24°C7 mph, E76%8341m1016hPa86%
21-Jun-2024 09:00Moderate Rain24°C9 mph, E98%7496m1017hPa84%
21-Jun-2024 12:00Light Rain24°C9 mph, E97%10000m1019hPa81%
21-Jun-2024 15:00Light Rain26°C11 mph, E91%10000m1018hPa70%
21-Jun-2024 18:00Broken Clouds27°C11 mph, E54%10000m1016hPa61%
21-Jun-2024 21:00Clear Sky25°C7 mph, E2%10000m1018hPa72%
22-Jun-2024 00:00Clear Sky24°C7 mph, E2%10000m1019hPa71%
22-Jun-2024 03:00Clear Sky23°C4 mph, E0%10000m1019hPa77%